Time;durP1;ratioP1;P1;durP2;ratioP2;P2;SDS_P1;SDS_P2;PMS_P1;PMS_P2;Temp;Humidity;BMP_temperature;BMP_pressure;BME280_temperature;BME280_humidity;BME280_pressure;Samples;Min_cycle;Max_cycle;Signal;HPM_P1;HPM_P2
2022/01/08 00:01:50;;;;;;;;;;;1.50;99.90;;;;;;6151919;23;19971;-77
2022/01/08 00:04:17;;;;;;;;;;;1.50;99.90;;;;;;6152102;23;19983;-77
2022/01/08 00:06:44;;;;;;;;;;;1.50;99.90;;;;;;6150575;23;19999;-77
2022/01/08 00:09:11;;;;;;;;;;;1.50;99.90;;;;;;6150960;23;19920;-77
2022/01/08 00:11:41;;;;;;;;;;;1.50;99.90;;;;;;6149980;23;19920;-78
2022/01/08 00:14:09;;;;;;;;;;;1.50;99.90;;;;;;6151545;23;19924;-77
2022/01/08 00:16:38;;;;;;;;;;;1.50;99.90;;;;;;6148977;23;19963;-78
2022/01/08 00:19:05;;;;;;;;;;;1.50;99.90;;;;;;6150146;23;19952;-77
2022/01/08 00:21:32;;;;;;;;;;;1.50;99.90;;;;;;6149802;23;19975;-77
2022/01/08 00:23:59;;;;;;;;;;;1.50;99.90;;;;;;6152681;23;19925;-78
2022/01/08 00:26:26;;;;;;;;;;;1.50;99.90;;;;;;6150205;23;19921;-77
2022/01/08 00:28:53;;;;;;;;;;;1.50;99.90;;;;;;6152112;23;19920;-77
2022/01/08 00:31:20;;;;;;;;;;;1.50;99.90;;;;;;6149617;23;19928;-78
2022/01/08 00:33:48;;;;;;;;;;;1.50;99.90;;;;;;6148342;23;19920;-77
2022/01/08 00:36:18;;;;;;;;;;;1.50;99.90;;;;;;6150170;23;19928;-77
2022/01/08 00:38:45;;;;;;;;;;;1.50;99.90;;;;;;6156816;23;19928;-77
2022/01/08 00:41:12;;;;;;;;;;;1.50;99.90;;;;;;6154085;23;19924;-77
2022/01/08 00:43:39;;;;;;;;;;;1.50;99.90;;;;;;6155564;23;19974;-77
2022/01/08 00:46:05;;;;;;;;;;;1.50;99.90;;;;;;6155768;23;20011;-77
2022/01/08 00:48:32;;;;;;;;;;;1.50;99.90;;;;;;6155486;23;19979;-78
2022/01/08 00:51:01;;;;;;;;;;;1.50;99.90;;;;;;6153329;23;19931;-78
2022/01/08 00:53:28;;;;;;;;;;;1.50;99.90;;;;;;6155354;23;19950;-77
2022/01/08 00:55:54;;;;;;;;;;;1.50;99.90;;;;;;6181777;23;19920;-77
2022/01/08 00:58:21;;;;;;;;;;;1.50;99.90;;;;;;6181658;23;19920;-78
2022/01/08 01:00:48;;;;;;;;;;;1.50;99.90;;;;;;6154965;23;19967;-77
2022/01/08 01:03:15;;;;;;;;;;;1.50;99.90;;;;;;6181522;23;19968;-78
2022/01/08 01:05:42;;;;;;;;;;;1.50;99.90;;;;;;6154445;23;19927;-77
2022/01/08 01:08:10;;;;;;;;;;;1.50;99.90;;;;;;6155978;23;19926;-77
2022/01/08 01:10:37;;;;;;;;;;;1.50;99.90;;;;;;6157379;23;19921;-77
2022/01/08 01:13:04;;;;;;;;;;;1.50;99.90;;;;;;6181838;23;20253;-77
2022/01/08 01:15:31;;;;;;;;;;;1.50;99.90;;;;;;6155616;23;19944;-78
2022/01/08 01:17:58;;;;;;;;;;;1.50;99.90;;;;;;6182928;23;19920;-77
2022/01/08 01:20:25;;;;;;;;;;;1.50;99.90;;;;;;6183567;23;19920;-77
2022/01/08 01:22:57;;;;;;;;;;;1.50;99.90;;;;;;6182672;23;19924;-77
2022/01/08 01:25:31;;;;;;;;;;;1.50;99.90;;;;;;6156241;23;19943;-77
2022/01/08 01:28:06;;;;;;;;;;;1.50;99.90;;;;;;6183047;23;19947;-78
2022/01/08 01:30:59;;;;;;;;;;;1.50;99.90;;;;;;6156878;23;19966;-77
2022/01/08 01:41:50;;;;;;;;;;;1.50;99.90;;;;;;6149966;23;19939;-77
2022/01/08 01:47:01;;;;;;;;;;;1.50;99.90;;;;;;6151149;23;19920;-77
2022/01/08 01:49:29;;;;;;;;;;;1.50;99.90;;;;;;6152486;23;20417;-77
2022/01/08 01:51:56;;;;;;;;;;;1.50;99.90;;;;;;6151338;23;19929;-77
2022/01/08 01:54:23;;;;;;;;;;;1.50;99.90;;;;;;6152437;23;19955;-77
2022/01/08 01:56:51;;;;;;;;;;;1.50;99.90;;;;;;6153429;23;19924;-77
2022/01/08 01:59:18;;;;;;;;;;;1.50;99.90;;;;;;6152978;23;19932;-77
2022/01/08 02:01:45;;;;;;;;;;;1.50;99.90;;;;;;6152921;23;19925;-77
2022/01/08 02:04:12;;;;;;;;;;;1.50;99.90;;;;;;6153938;23;19952;-78
2022/01/08 02:06:39;;;;;;;;;;;1.50;99.90;;;;;;6150415;23;19925;-77
2022/01/08 02:09:06;;;;;;;;;;;1.50;99.90;;;;;;6153412;23;20329;-77
2022/01/08 02:11:33;;;;;;;;;;;1.50;99.90;;;;;;6152580;23;20364;-77
2022/01/08 02:14:04;;;;;;;;;;;1.50;99.90;;;;;;6151699;23;19947;-77
2022/01/08 02:16:32;;;;;;;;;;;1.50;99.90;;;;;;6150370;23;19920;-77
2022/01/08 02:18:58;;;;;;;;;;;1.50;99.90;;;;;;6151751;23;19924;-77
2022/01/08 02:21:28;;;;;;;;;;;1.50;99.90;;;;;;6151187;23;20256;-77
2022/01/08 02:23:55;;;;;;;;;;;1.50;99.90;;;;;;6150677;23;20390;-77
2022/01/08 02:26:21;;;;;;;;;;;1.50;99.90;;;;;;6152101;23;19928;-77
2022/01/08 02:28:48;;;;;;;;;;;1.50;99.90;;;;;;6151747;23;19971;-77
2022/01/08 02:31:22;;;;;;;;;;;1.50;99.90;;;;;;6151710;23;19920;-77
2022/01/08 02:33:49;;;;;;;;;;;1.50;99.90;;;;;;6151861;23;19932;-77
2022/01/08 02:36:16;;;;;;;;;;;1.50;99.90;;;;;;6149620;23;19925;-78
2022/01/08 02:38:45;;;;;;;;;;;1.50;99.90;;;;;;6155683;23;19975;-78
2022/01/08 02:41:12;;;;;;;;;;;1.50;99.90;;;;;;6129073;23;19925;-78
2022/01/08 02:43:45;;;;;;;;;;;1.50;99.90;;;;;;6131961;23;19991;-78
2022/01/08 02:46:11;;;;;;;;;;;1.40;99.90;;;;;;6150880;23;19920;-78
2022/01/08 02:48:39;;;;;;;;;;;1.40;99.90;;;;;;6149658;23;19995;-78
2022/01/08 02:51:05;;;;;;;;;;;1.50;99.90;;;;;;6149762;23;20357;-78
2022/01/08 02:53:32;;;;;;;;;;;1.40;99.90;;;;;;6151863;23;19975;-78
2022/01/08 02:56:00;;;;;;;;;;;1.50;99.90;;;;;;6152291;23;19921;-78
2022/01/08 02:58:28;;;;;;;;;;;1.50;99.90;;;;;;6149822;23;19921;-78
2022/01/08 03:00:55;;;;;;;;;;;1.50;99.90;;;;;;6152033;23;19921;-78
2022/01/08 03:03:22;;;;;;;;;;;1.50;99.90;;;;;;6152215;23;19924;-78
2022/01/08 03:05:49;;;;;;;;;;;1.50;99.90;;;;;;6151921;23;19924;-78
2022/01/08 03:08:16;;;;;;;;;;;1.50;99.90;;;;;;6152452;23;19975;-76
2022/01/08 03:10:43;;;;;;;;;;;1.50;99.90;;;;;;6149774;23;19924;-75
2022/01/08 03:13:11;;;;;;;;;;;1.50;99.90;;;;;;6151237;23;19920;-75
2022/01/08 03:15:41;;;;;;;;;;;1.50;99.90;;;;;;6151986;23;20401;-75
2022/01/08 03:18:08;;;;;;;;;;;1.50;99.90;;;;;;6151036;23;20278;-75
2022/01/08 03:20:43;;;;;;;;;;;1.50;99.90;;;;;;6150647;23;19925;-75
2022/01/08 03:23:14;;;;;;;;;;;1.50;99.90;;;;;;6150372;23;19921;-75
2022/01/08 03:25:41;;;;;;;;;;;1.50;99.90;;;;;;6151561;23;19921;-75
2022/01/08 03:28:08;;;;;;;;;;;1.50;99.90;;;;;;6149371;23;19921;-75
2022/01/08 03:30:36;;;;;;;;;;;1.50;99.90;;;;;;6149817;23;19975;-75
2022/01/08 03:33:03;;;;;;;;;;;1.50;99.90;;;;;;6150406;23;19920;-75
2022/01/08 03:35:30;;;;;;;;;;;1.50;99.90;;;;;;6150916;23;20306;-75
2022/01/08 03:37:57;;;;;;;;;;;1.50;99.90;;;;;;6149854;23;19924;-75
2022/01/08 03:40:24;;;;;;;;;;;1.50;99.90;;;;;;6151649;23;20354;-75
2022/01/08 03:42:51;;;;;;;;;;;1.50;99.90;;;;;;6148972;23;19960;-75
2022/01/08 03:45:18;;;;;;;;;;;1.50;99.90;;;;;;6144253;23;20357;-75
2022/01/08 03:48:17;;;;;;;;;;;1.50;99.90;;;;;;6150116;23;20281;-75
2022/01/08 03:50:44;;;;;;;;;;;1.50;99.90;;;;;;6151486;23;20338;-76
2022/01/08 03:53:11;;;;;;;;;;;1.50;99.90;;;;;;6149484;23;19924;-75
2022/01/08 03:55:38;;;;;;;;;;;1.50;99.90;;;;;;6149975;23;19979;-75
2022/01/08 03:58:05;;;;;;;;;;;1.50;99.90;;;;;;6151312;23;20281;-75
2022/01/08 04:00:32;;;;;;;;;;;1.50;99.90;;;;;;6151667;23;19948;-75
2022/01/08 04:03:00;;;;;;;;;;;1.50;99.90;;;;;;6149661;23;19928;-75
2022/01/08 04:05:27;;;;;;;;;;;1.50;99.90;;;;;;6151752;23;19925;-76
2022/01/08 04:07:54;;;;;;;;;;;1.50;99.90;;;;;;6151008;23;19924;-75
2022/01/08 04:10:21;;;;;;;;;;;1.50;99.90;;;;;;6148761;23;19920;-75
2022/01/08 04:12:51;;;;;;;;;;;1.50;99.90;;;;;;6148920;23;19929;-75
2022/01/08 04:18:03;;;;;;;;;;;1.50;99.90;;;;;;6147701;23;19916;-78
2022/01/08 04:20:30;;;;;;;;;;;1.50;99.90;;;;;;6150384;23;19927;-78
2022/01/08 04:22:57;;;;;;;;;;;1.50;99.90;;;;;;6149121;23;20270;-78
2022/01/08 04:25:25;;;;;;;;;;;1.60;99.90;;;;;;6150348;23;19920;-78
2022/01/08 04:27:52;;;;;;;;;;;1.50;99.90;;;;;;6151011;23;20223;-78
2022/01/08 04:30:19;;;;;;;;;;;1.50;99.90;;;;;;6149258;23;19920;-75
2022/01/08 04:32:46;;;;;;;;;;;1.50;99.90;;;;;;6148793;23;19979;-75
2022/01/08 04:35:14;;;;;;;;;;;1.50;99.90;;;;;;6148312;23;19924;-76
2022/01/08 04:37:41;;;;;;;;;;;1.50;99.90;;;;;;6143209;23;19920;-75
2022/01/08 04:40:08;;;;;;;;;;;1.50;99.90;;;;;;6145285;23;19931;-75
2022/01/08 04:42:35;;;;;;;;;;;1.50;99.90;;;;;;6146333;23;19925;-75
2022/01/08 04:45:02;;;;;;;;;;;1.60;99.90;;;;;;6147006;23;19921;-76
2022/01/08 04:47:29;;;;;;;;;;;1.50;99.90;;;;;;6147295;23;19924;-75
2022/01/08 04:49:58;;;;;;;;;;;1.50;99.90;;;;;;6148719;23;19924;-75
2022/01/08 04:52:26;;;;;;;;;;;1.50;99.90;;;;;;6148364;23;19921;-76
2022/01/08 04:54:53;;;;;;;;;;;1.50;99.90;;;;;;6150868;23;20199;-75
2022/01/08 04:57:20;;;;;;;;;;;1.50;99.90;;;;;;6148961;23;19960;-75
2022/01/08 04:59:47;;;;;;;;;;;1.50;99.90;;;;;;6147625;23;19920;-75
2022/01/08 05:02:13;;;;;;;;;;;1.50;99.90;;;;;;6147866;23;19975;-74
2022/01/08 05:04:42;;;;;;;;;;;1.50;99.90;;;;;;6120165;23;22455;-75
2022/01/08 05:07:09;;;;;;;;;;;1.50;99.90;;;;;;6145984;23;20383;-74
2022/01/08 05:09:37;;;;;;;;;;;1.50;99.90;;;;;;6150422;23;19931;-75
2022/01/08 05:12:04;;;;;;;;;;;1.50;99.90;;;;;;6149556;23;19944;-75
2022/01/08 05:14:31;;;;;;;;;;;1.50;99.90;;;;;;6149025;23;19921;-75
2022/01/08 05:17:00;;;;;;;;;;;1.50;99.90;;;;;;6150613;23;19925;-74
2022/01/08 05:19:39;;;;;;;;;;;1.50;99.90;;;;;;6150035;23;19920;-75
2022/01/08 05:22:07;;;;;;;;;;;1.50;99.90;;;;;;6166113;23;19920;-75
2022/01/08 05:24:34;;;;;;;;;;;1.50;99.90;;;;;;6159636;23;19920;-78
2022/01/08 05:27:05;;;;;;;;;;;1.50;99.90;;;;;;6148702;23;20392;-78
2022/01/08 05:29:32;;;;;;;;;;;1.50;99.90;;;;;;6148782;23;20269;-77
2022/01/08 05:31:59;;;;;;;;;;;1.50;99.90;;;;;;6150331;23;20106;-75
2022/01/08 05:34:26;;;;;;;;;;;1.50;99.90;;;;;;6148440;23;19984;-75
2022/01/08 05:36:53;;;;;;;;;;;1.50;99.90;;;;;;6149764;23;19967;-75
2022/01/08 05:39:20;;;;;;;;;;;1.50;99.90;;;;;;6149024;23;20000;-74
2022/01/08 05:41:49;;;;;;;;;;;1.50;99.90;;;;;;6147889;23;19975;-74
2022/01/08 05:44:17;;;;;;;;;;;1.50;99.90;;;;;;6147811;23;19920;-75
2022/01/08 05:46:46;;;;;;;;;;;1.50;99.90;;;;;;6148236;23;19927;-74
2022/01/08 05:49:15;;;;;;;;;;;1.60;99.90;;;;;;6149577;23;19979;-75
2022/01/08 05:51:42;;;;;;;;;;;1.60;99.90;;;;;;6149155;23;19925;-77
2022/01/08 05:54:09;;;;;;;;;;;1.60;99.90;;;;;;6151240;23;20269;-77
2022/01/08 05:56:36;;;;;;;;;;;1.50;99.90;;;;;;6153802;23;20349;-77
2022/01/08 05:59:03;;;;;;;;;;;1.60;99.90;;;;;;6151245;23;19921;-77
2022/01/08 06:01:33;;;;;;;;;;;1.60;99.90;;;;;;6149944;23;19920;-77
2022/01/08 06:03:59;;;;;;;;;;;1.60;99.90;;;;;;6151308;23;19984;-77
2022/01/08 06:06:26;;;;;;;;;;;1.60;99.90;;;;;;6151408;23;19925;-75
2022/01/08 06:08:53;;;;;;;;;;;1.60;99.90;;;;;;6151152;23;19920;-75
2022/01/08 06:11:20;;;;;;;;;;;1.60;99.90;;;;;;6151866;23;19971;-75
2022/01/08 06:13:47;;;;;;;;;;;1.60;99.90;;;;;;6150084;23;19920;-75
2022/01/08 06:16:14;;;;;;;;;;;1.60;99.90;;;;;;6155555;23;19955;-75
2022/01/08 06:18:42;;;;;;;;;;;1.60;99.90;;;;;;6155426;23;19920;-75
2022/01/08 06:21:09;;;;;;;;;;;1.60;99.90;;;;;;6150199;23;19979;-75
2022/01/08 06:23:36;;;;;;;;;;;1.60;99.90;;;;;;6150808;23;19944;-75
2022/01/08 06:26:05;;;;;;;;;;;1.60;99.90;;;;;;6151487;23;20369;-74
2022/01/08 06:28:31;;;;;;;;;;;1.60;99.90;;;;;;6150177;23;19921;-75
2022/01/08 06:30:58;;;;;;;;;;;1.60;99.90;;;;;;6149924;23;20015;-75
2022/01/08 06:33:25;;;;;;;;;;;1.60;99.90;;;;;;6149309;23;19993;-75
2022/01/08 06:35:54;;;;;;;;;;;1.60;99.90;;;;;;6149293;23;19925;-75
2022/01/08 06:38:20;;;;;;;;;;;1.60;99.90;;;;;;6151687;23;19928;-75
2022/01/08 06:40:47;;;;;;;;;;;1.60;99.90;;;;;;6150545;23;19977;-75
2022/01/08 06:43:14;;;;;;;;;;;1.60;99.90;;;;;;6149547;23;19921;-75
2022/01/08 06:45:41;;;;;;;;;;;1.60;99.90;;;;;;6152319;23;19921;-75
2022/01/08 06:48:08;;;;;;;;;;;1.60;99.90;;;;;;6151646;23;19925;-75
2022/01/08 06:50:35;;;;;;;;;;;1.60;99.90;;;;;;6150490;23;20198;-75
2022/01/08 06:53:03;;;;;;;;;;;1.60;99.90;;;;;;6148116;23;19928;-75
2022/01/08 06:55:30;;;;;;;;;;;1.60;99.90;;;;;;6153330;23;19925;-75
2022/01/08 06:57:58;;;;;;;;;;;1.60;99.90;;;;;;6153531;23;19975;-75
2022/01/08 07:00:25;;;;;;;;;;;1.60;99.90;;;;;;6151102;23;20357;-75
2022/01/08 07:02:52;;;;;;;;;;;1.60;99.90;;;;;;6147627;23;20412;-75
2022/01/08 07:05:18;;;;;;;;;;;1.60;99.90;;;;;;6152401;23;19943;-75
2022/01/08 07:07:45;;;;;;;;;;;1.60;99.90;;;;;;6149395;23;19950;-75
2022/01/08 07:10:14;;;;;;;;;;;1.70;99.90;;;;;;6152552;23;19932;-75
2022/01/08 07:12:41;;;;;;;;;;;1.60;99.90;;;;;;6149113;23;19924;-75
2022/01/08 07:15:08;;;;;;;;;;;1.60;99.90;;;;;;6145648;23;20298;-75
2022/01/08 07:17:35;;;;;;;;;;;1.60;99.90;;;;;;6150687;23;19987;-75
2022/01/08 07:20:02;;;;;;;;;;;1.60;99.90;;;;;;6146419;23;20262;-75
2022/01/08 07:22:29;;;;;;;;;;;1.60;99.90;;;;;;6146064;23;19920;-75
2022/01/08 07:24:56;;;;;;;;;;;1.60;99.90;;;;;;6146231;23;19943;-75
2022/01/08 07:27:24;;;;;;;;;;;1.50;99.90;;;;;;6143938;23;20283;-75
2022/01/08 07:29:51;;;;;;;;;;;1.50;99.90;;;;;;6144006;23;19931;-75
2022/01/08 07:32:18;;;;;;;;;;;1.50;99.90;;;;;;6145852;23;19931;-75
2022/01/08 07:34:45;;;;;;;;;;;1.50;99.90;;;;;;6145098;23;20242;-75
2022/01/08 07:37:12;;;;;;;;;;;1.50;99.90;;;;;;6146034;23;20396;-75
2022/01/08 07:39:39;;;;;;;;;;;1.50;99.90;;;;;;6146774;23;19924;-75
2022/01/08 07:42:05;;;;;;;;;;;1.50;99.90;;;;;;6145105;23;20253;-75
2022/01/08 07:44:35;;;;;;;;;;;1.50;99.90;;;;;;6140018;23;20268;-75
2022/01/08 07:47:01;;;;;;;;;;;1.50;99.90;;;;;;6141726;23;19931;-75
2022/01/08 07:49:28;;;;;;;;;;;1.50;99.90;;;;;;6144224;23;19920;-74
2022/01/08 07:51:55;;;;;;;;;;;1.50;99.90;;;;;;6144734;23;19975;-75
2022/01/08 07:54:22;;;;;;;;;;;1.50;99.90;;;;;;6142735;23;19971;-74
2022/01/08 07:56:49;;;;;;;;;;;1.40;99.90;;;;;;6147585;23;19925;-75
2022/01/08 07:59:16;;;;;;;;;;;1.40;99.90;;;;;;6142738;23;19924;-75
2022/01/08 08:01:44;;;;;;;;;;;1.50;99.90;;;;;;6144544;23;19925;-75
2022/01/08 08:04:11;;;;;;;;;;;1.50;99.90;;;;;;6144932;23;19928;-75
2022/01/08 08:06:43;;;;;;;;;;;1.40;99.90;;;;;;6149811;23;19979;-75
2022/01/08 08:09:10;;;;;;;;;;;1.40;99.90;;;;;;6148893;23;19924;-74
2022/01/08 08:11:37;;;;;;;;;;;1.50;99.90;;;;;;6146835;23;19928;-75
2022/01/08 08:14:04;;;;;;;;;;;1.50;99.90;;;;;;6148756;23;20140;-75
2022/01/08 08:16:31;;;;;;;;;;;1.50;99.90;;;;;;6149840;23;19935;-75
2022/01/08 08:18:59;;;;;;;;;;;1.50;99.90;;;;;;6149733;23;19924;-75
2022/01/08 08:21:26;;;;;;;;;;;1.50;99.90;;;;;;6148497;23;19921;-75
2022/01/08 08:23:53;;;;;;;;;;;1.50;99.90;;;;;;6149360;23;19925;-75
2022/01/08 08:26:20;;;;;;;;;;;1.50;99.90;;;;;;6143409;23;19928;-75
2022/01/08 08:28:47;;;;;;;;;;;1.50;99.90;;;;;;6144378;23;20084;-75
2022/01/08 08:31:13;;;;;;;;;;;1.50;99.90;;;;;;6143974;23;19963;-75
2022/01/08 08:33:41;;;;;;;;;;;1.50;99.90;;;;;;6141734;23;20354;-74
2022/01/08 08:36:09;;;;;;;;;;;1.50;99.90;;;;;;6143687;23;20320;-74
2022/01/08 08:38:36;;;;;;;;;;;1.50;99.90;;;;;;6140306;23;19948;-74
2022/01/08 08:41:03;;;;;;;;;;;1.50;99.90;;;;;;6142199;23;19921;-74
2022/01/08 08:43:30;;;;;;;;;;;1.50;99.90;;;;;;6144591;23;19921;-74
2022/01/08 08:45:57;;;;;;;;;;;1.50;99.90;;;;;;6145712;23;19997;-75
2022/01/08 08:48:23;;;;;;;;;;;1.50;99.90;;;;;;6147274;23;19921;-75
2022/01/08 08:50:50;;;;;;;;;;;1.50;99.90;;;;;;6149260;23;20302;-74
2022/01/08 08:53:19;;;;;;;;;;;1.50;99.90;;;;;;6140846;23;19924;-74
2022/01/08 08:55:47;;;;;;;;;;;1.50;99.90;;;;;;6143101;23;19921;-77
2022/01/08 08:58:14;;;;;;;;;;;1.50;99.90;;;;;;6144233;23;19925;-77
2022/01/08 09:00:41;;;;;;;;;;;1.50;99.90;;;;;;6149337;23;19932;-77
2022/01/08 09:03:08;;;;;;;;;;;1.50;99.90;;;;;;6141194;23;19925;-77
2022/01/08 09:05:35;;;;;;;;;;;1.50;99.90;;;;;;6143081;23;19960;-78
2022/01/08 09:08:03;;;;;;;;;;;1.50;99.90;;;;;;6141874;23;19921;-77
2022/01/08 09:10:33;;;;;;;;;;;1.50;99.90;;;;;;6149780;23;19920;-77
2022/01/08 09:12:59;;;;;;;;;;;1.50;99.90;;;;;;6147374;23;20344;-78
2022/01/08 09:15:27;;;;;;;;;;;1.50;99.90;;;;;;6144692;23;19952;-77
2022/01/08 09:17:57;;;;;;;;;;;1.50;99.90;;;;;;6147512;23;19959;-76
2022/01/08 09:20:24;;;;;;;;;;;1.50;99.90;;;;;;6147416;23;19921;-75
2022/01/08 09:22:51;;;;;;;;;;;1.50;99.90;;;;;;6163322;23;19926;-75
2022/01/08 09:25:18;;;;;;;;;;;1.50;99.90;;;;;;6173360;23;19916;-75
2022/01/08 09:27:47;;;;;;;;;;;1.50;99.90;;;;;;6160700;23;19920;-76
2022/01/08 09:30:13;;;;;;;;;;;1.50;99.90;;;;;;6155000;23;19924;-75
2022/01/08 09:32:43;;;;;;;;;;;1.50;99.90;;;;;;6151633;23;19948;-75
2022/01/08 09:35:10;;;;;;;;;;;1.50;99.90;;;;;;6149265;23;19952;-75
2022/01/08 09:37:39;;;;;;;;;;;1.50;99.90;;;;;;6149761;23;19947;-75
2022/01/08 09:40:07;;;;;;;;;;;1.50;99.90;;;;;;6148900;23;20365;-75
2022/01/08 09:42:34;;;;;;;;;;;1.50;99.90;;;;;;6149194;23;19920;-77
2022/01/08 09:45:03;;;;;;;;;;;1.50;99.90;;;;;;6150361;23;20346;-77
2022/01/08 09:47:30;;;;;;;;;;;1.50;99.90;;;;;;6152902;23;19921;-78
2022/01/08 09:49:57;;;;;;;;;;;1.50;99.90;;;;;;6153110;23;19991;-77
2022/01/08 09:52:24;;;;;;;;;;;1.50;99.90;;;;;;6150777;23;19936;-77
2022/01/08 09:54:51;;;;;;;;;;;1.50;99.90;;;;;;6150665;23;19920;-78
2022/01/08 09:57:17;;;;;;;;;;;1.50;99.90;;;;;;6151085;23;19924;-75
2022/01/08 09:59:44;;;;;;;;;;;1.50;99.90;;;;;;6151417;23;19947;-75
2022/01/08 10:02:13;;;;;;;;;;;1.50;99.90;;;;;;6145674;23;19920;-75
2022/01/08 10:04:41;;;;;;;;;;;1.50;99.90;;;;;;6142299;23;20365;-75
2022/01/08 10:07:15;;;;;;;;;;;1.60;99.90;;;;;;6146708;23;20287;-78
2022/01/08 10:09:57;;;;;;;;;;;1.50;99.90;;;;;;6149504;23;19924;-78
2022/01/08 10:12:35;;;;;;;;;;;1.50;99.90;;;;;;6150489;23;20428;-77
2022/01/08 10:17:48;;;;;;;;;;;1.50;99.90;;;;;;6149415;23;19928;-78
2022/01/08 10:20:26;;;;;;;;;;;1.50;99.90;;;;;;6151599;23;19921;-78
2022/01/08 10:22:58;;;;;;;;;;;1.50;99.90;;;;;;6149461;23;19940;-78
2022/01/08 10:25:24;;;;;;;;;;;1.50;99.90;;;;;;6150418;23;20273;-77
2022/01/08 10:27:51;;;;;;;;;;;1.60;99.90;;;;;;6151898;23;20025;-78
2022/01/08 10:30:25;;;;;;;;;;;1.60;99.90;;;;;;6148645;23;19921;-78
2022/01/08 10:33:00;;;;;;;;;;;1.60;99.90;;;;;;6151424;23;20254;-78
2022/01/08 10:35:46;;;;;;;;;;;1.60;99.90;;;;;;6150490;23;19920;-78
2022/01/08 10:38:13;;;;;;;;;;;1.60;99.90;;;;;;6149244;23;19929;-78
2022/01/08 10:40:40;;;;;;;;;;;1.60;99.90;;;;;;6149068;23;19924;-78
2022/01/08 10:43:20;;;;;;;;;;;1.60;99.90;;;;;;6148868;23;19931;-76
2022/01/08 10:45:47;;;;;;;;;;;1.60;99.90;;;;;;6149784;23;20358;-76
2022/01/08 10:48:24;;;;;;;;;;;1.60;99.90;;;;;;6149233;23;20259;-75
2022/01/08 10:50:51;;;;;;;;;;;1.60;99.90;;;;;;6151511;23;19943;-75
2022/01/08 10:53:18;;;;;;;;;;;1.60;99.90;;;;;;6148250;23;19921;-75
2022/01/08 10:55:45;;;;;;;;;;;1.60;99.90;;;;;;6150534;23;19920;-76
2022/01/08 10:58:12;;;;;;;;;;;1.70;99.90;;;;;;6150828;23;19924;-76
2022/01/08 11:00:39;;;;;;;;;;;1.60;99.90;;;;;;6151444;23;19951;-76
2022/01/08 11:03:06;;;;;;;;;;;1.60;99.90;;;;;;6152242;23;20296;-76
2022/01/08 11:05:37;;;;;;;;;;;1.60;99.90;;;;;;6147494;23;19943;-78
2022/01/08 11:08:13;;;;;;;;;;;1.60;99.90;;;;;;6153998;23;19959;-78
2022/01/08 11:10:42;;;;;;;;;;;1.60;99.90;;;;;;6154250;23;19925;-78
2022/01/08 11:13:14;;;;;;;;;;;1.70;99.90;;;;;;6154968;23;19971;-78
2022/01/08 11:15:51;;;;;;;;;;;1.70;99.90;;;;;;6182444;23;19944;-78
2022/01/08 11:18:19;;;;;;;;;;;1.70;99.90;;;;;;6156647;23;19928;-79
2022/01/08 11:20:50;;;;;;;;;;;1.70;99.90;;;;;;6181709;23;19924;-77
2022/01/08 11:23:23;;;;;;;;;;;1.70;99.90;;;;;;6181776;23;19927;-78
2022/01/08 11:25:54;;;;;;;;;;;1.70;99.90;;;;;;6181498;23;19999;-78
2022/01/08 11:28:25;;;;;;;;;;;1.70;99.90;;;;;;6181030;23;19931;-78
2022/01/08 11:30:53;;;;;;;;;;;1.70;99.90;;;;;;6181668;23;19921;-78
2022/01/08 11:33:24;;;;;;;;;;;1.70;99.90;;;;;;6180269;23;19983;-78
2022/01/08 11:35:53;;;;;;;;;;;1.70;99.90;;;;;;6182016;23;20345;-78
2022/01/08 11:38:21;;;;;;;;;;;1.60;99.90;;;;;;6181177;23;19920;-78
2022/01/08 11:40:49;;;;;;;;;;;1.60;99.90;;;;;;6181409;23;19927;-79
2022/01/08 11:43:17;;;;;;;;;;;1.60;99.90;;;;;;6180814;23;19920;-79
2022/01/08 11:45:47;;;;;;;;;;;1.60;99.90;;;;;;6183527;23;20007;-78
2022/01/08 11:48:14;;;;;;;;;;;1.60;99.90;;;;;;6181613;23;20406;-78
2022/01/08 11:50:50;;;;;;;;;;;1.60;99.90;;;;;;6179264;23;19924;-78
2022/01/08 11:53:19;;;;;;;;;;;1.60;99.90;;;;;;6179923;23;19990;-78
2022/01/08 11:55:47;;;;;;;;;;;1.60;99.90;;;;;;6181827;23;19927;-78
2022/01/08 11:58:15;;;;;;;;;;;1.60;99.90;;;;;;6180666;23;19920;-78
2022/01/08 12:00:53;;;;;;;;;;;1.60;99.90;;;;;;6181580;23;19920;-78
2022/01/08 12:03:21;;;;;;;;;;;1.60;99.90;;;;;;6181578;23;20341;-78
2022/01/08 12:05:49;;;;;;;;;;;1.70;99.90;;;;;;6180718;23;20144;-78
2022/01/08 12:08:18;;;;;;;;;;;1.70;99.90;;;;;;6182587;23;19920;-78
2022/01/08 12:11:00;;;;;;;;;;;1.60;99.90;;;;;;6182588;23;19928;-78
2022/01/08 12:13:44;;;;;;;;;;;1.70;99.90;;;;;;6181376;23;19951;-78
2022/01/08 12:16:26;;;;;;;;;;;1.70;99.90;;;;;;6180346;23;20249;-78
2022/01/08 12:18:53;;;;;;;;;;;1.70;99.90;;;;;;6181153;23;19931;-78
2022/01/08 12:21:30;;;;;;;;;;;1.70;99.90;;;;;;6180895;23;19921;-78
2022/01/08 12:23:59;;;;;;;;;;;1.70;99.90;;;;;;6181103;23;19924;-78
2022/01/08 12:26:39;;;;;;;;;;;1.70;99.90;;;;;;6181231;23;19931;-78
2022/01/08 12:29:07;;;;;;;;;;;1.80;99.90;;;;;;6181386;23;19920;-78
2022/01/08 12:31:40;;;;;;;;;;;1.80;99.90;;;;;;6180653;23;20372;-78
2022/01/08 12:34:28;;;;;;;;;;;1.80;99.90;;;;;;6181878;23;19926;-78
2022/01/08 12:36:56;;;;;;;;;;;1.80;99.90;;;;;;6180493;23;20269;-79
2022/01/08 12:39:26;;;;;;;;;;;1.80;99.90;;;;;;6180129;23;20368;-78
2022/01/08 12:42:12;;;;;;;;;;;1.80;99.90;;;;;;6181324;23;20007;-78
2022/01/08 12:44:40;;;;;;;;;;;1.80;99.90;;;;;;6179479;23;19940;-78
2022/01/08 12:47:07;;;;;;;;;;;1.80;99.90;;;;;;6181081;23;19921;-79
2022/01/08 12:49:34;;;;;;;;;;;1.90;99.90;;;;;;6180348;23;19920;-79
2022/01/08 12:52:05;;;;;;;;;;;1.90;99.90;;;;;;6182002;23;19935;-79
2022/01/08 12:54:32;;;;;;;;;;;1.90;99.90;;;;;;6180541;23;19934;-79
2022/01/08 12:57:05;;;;;;;;;;;2.00;99.90;;;;;;6181625;23;19948;-79
2022/01/08 12:59:33;;;;;;;;;;;1.90;99.90;;;;;;6181261;23;19928;-79
2022/01/08 13:02:01;;;;;;;;;;;1.90;99.90;;;;;;6183183;23;19995;-79
2022/01/08 13:04:28;;;;;;;;;;;1.90;99.90;;;;;;6180023;23;19920;-79
2022/01/08 13:06:55;;;;;;;;;;;1.90;99.90;;;;;;6180627;23;19920;-79
2022/01/08 13:09:22;;;;;;;;;;;2.00;99.90;;;;;;6181659;23;19987;-79
2022/01/08 13:11:49;;;;;;;;;;;2.00;99.90;;;;;;6180128;23;20349;-79
2022/01/08 13:14:17;;;;;;;;;;;2.00;99.90;;;;;;6182313;23;19927;-79
2022/01/08 13:16:45;;;;;;;;;;;2.00;99.90;;;;;;6179179;23;20372;-79
2022/01/08 13:19:14;;;;;;;;;;;2.00;99.90;;;;;;6180167;23;20007;-79
2022/01/08 13:21:42;;;;;;;;;;;2.00;99.90;;;;;;6180224;23;19921;-79
2022/01/08 13:24:13;;;;;;;;;;;2.00;99.90;;;;;;6181140;23;19920;-79
2022/01/08 13:26:42;;;;;;;;;;;2.00;99.90;;;;;;6181565;23;19994;-79
2022/01/08 13:29:19;;;;;;;;;;;2.00;99.90;;;;;;6181663;23;19952;-80
2022/01/08 13:31:47;;;;;;;;;;;2.00;99.90;;;;;;6182562;23;19924;-79
2022/01/08 13:34:16;;;;;;;;;;;2.00;99.90;;;;;;6183210;23;19920;-80
2022/01/08 13:36:58;;;;;;;;;;;2.00;99.90;;;;;;6181067;23;20267;-80
2022/01/08 13:39:26;;;;;;;;;;;2.00;99.90;;;;;;6184103;23;19920;-79
2022/01/08 13:42:04;;;;;;;;;;;2.00;99.90;;;;;;6181354;23;19925;-80
2022/01/08 13:44:31;;;;;;;;;;;2.00;99.90;;;;;;6180063;23;20007;-80
2022/01/08 13:46:58;;;;;;;;;;;2.10;99.90;;;;;;6181378;23;19921;-79
2022/01/08 13:49:26;;;;;;;;;;;2.10;99.90;;;;;;6180911;23;19920;-79
2022/01/08 13:51:54;;;;;;;;;;;2.10;99.90;;;;;;6177306;23;19972;-79
2022/01/08 13:54:21;;;;;;;;;;;2.10;99.90;;;;;;6178862;23;19927;-79
2022/01/08 13:56:48;;;;;;;;;;;2.10;99.90;;;;;;6181020;23;20261;-78
2022/01/08 13:59:17;;;;;;;;;;;2.10;99.90;;;;;;6178108;23;20409;-79
2022/01/08 14:01:45;;;;;;;;;;;2.10;99.90;;;;;;6180353;23;20288;-78
2022/01/08 14:04:12;;;;;;;;;;;2.10;99.90;;;;;;6178583;23;19927;-78
2022/01/08 14:06:41;;;;;;;;;;;2.10;99.90;;;;;;6181651;23;19920;-78
2022/01/08 14:09:10;;;;;;;;;;;2.10;99.90;;;;;;6174269;23;20454;-79
2022/01/08 14:11:37;;;;;;;;;;;2.10;99.90;;;;;;6178419;23;20319;-79
2022/01/08 14:14:11;;;;;;;;;;;2.10;99.90;;;;;;6175942;23;19927;-79
2022/01/08 14:16:40;;;;;;;;;;;2.10;99.90;;;;;;6178153;23;20261;-78
2022/01/08 14:19:07;;;;;;;;;;;2.20;99.90;;;;;;6178750;23;20003;-78
2022/01/08 14:21:35;;;;;;;;;;;2.10;99.90;;;;;;6177150;23;19920;-78
2022/01/08 14:24:15;;;;;;;;;;;2.10;99.90;;;;;;6179774;23;19975;-78
2022/01/08 14:26:42;;;;;;;;;;;2.10;99.90;;;;;;6181077;23;19920;-79
2022/01/08 14:29:10;;;;;;;;;;;2.20;99.90;;;;;;6181425;23;19920;-79
2022/01/08 14:31:37;;;;;;;;;;;2.10;99.90;;;;;;6180074;23;19963;-79
2022/01/08 14:34:06;;;;;;;;;;;2.10;99.90;;;;;;6181366;23;19924;-78
2022/01/08 14:36:40;;;;;;;;;;;2.20;99.90;;;;;;6180810;23;20672;-79
2022/01/08 14:39:07;;;;;;;;;;;2.10;99.90;;;;;;6180754;23;19947;-79
2022/01/08 14:41:37;;;;;;;;;;;2.10;99.90;;;;;;6183064;23;19916;-79
2022/01/08 14:44:04;;;;;;;;;;;2.20;99.90;;;;;;6181764;23;20242;-78
2022/01/08 14:46:31;;;;;;;;;;;2.10;99.90;;;;;;6182109;23;20361;-79
2022/01/08 14:48:58;;;;;;;;;;;2.10;99.90;;;;;;6179804;23;20317;-79
2022/01/08 14:51:29;;;;;;;;;;;2.10;99.90;;;;;;6183047;23;19974;-79
2022/01/08 14:53:57;;;;;;;;;;;2.20;99.90;;;;;;6181306;23;19924;-79
2022/01/08 14:56:24;;;;;;;;;;;2.10;99.90;;;;;;6182833;23;19974;-79